Time;durP1;ratioP1;P1;durP2;ratioP2;P2;SDS_P1;SDS_P2;PMS_P1;PMS_P2;Temp;Humidity;BMP_temperature;BMP_pressure;BME280_temperature;BME280_humidity;BME280_pressure;Samples;Min_cycle;Max_cycle;Signal;HPM_P1;HPM_P2
2021/07/16 00:02:12;;;;;;;3.20;2.22;;;;;;;19.57;100.00;100440.08;1785340;80;21061;-83
2021/07/16 00:04:38;;;;;;;2.80;2.00;;;;;;;19.53;100.00;100443.28;1785522;80;21420;-86
2021/07/16 00:07:05;;;;;;;2.87;2.27;;;;;;;19.50;100.00;100438.42;1785518;80;20998;-83
2021/07/16 00:09:32;;;;;;;3.20;2.20;;;;;;;19.46;100.00;100443.02;1779712;80;21066;-87
2021/07/16 00:11:58;;;;;;;2.77;2.20;;;;;;;19.40;100.00;100445.77;1754003;81;21415;-83
2021/07/16 00:14:25;;;;;;;2.65;2.40;;;;;;;19.37;100.00;100431.22;1754463;81;21102;-84
2021/07/16 00:16:54;;;;;;;5.28;2.80;;;;;;;19.36;100.00;100439.28;1754089;81;21000;-87
2021/07/16 00:19:21;;;;;;;6.28;2.60;;;;;;;19.32;100.00;100444.12;1745854;82;21097;-88
2021/07/16 00:21:48;;;;;;;3.37;2.27;;;;;;;19.31;100.00;100445.28;1754055;81;21050;-83
2021/07/16 00:24:14;;;;;;;3.20;2.30;;;;;;;19.29;100.00;100436.49;1771438;80;20991;-87
2021/07/16 00:26:41;;;;;;;3.08;2.35;;;;;;;19.30;100.00;100439.48;1785132;80;21101;-83
2021/07/16 00:29:08;;;;;;;3.70;2.40;;;;;;;19.31;100.00;100443.89;1785037;80;20970;-83
2021/07/16 00:31:35;;;;;;;3.30;2.50;;;;;;;19.34;100.00;100447.36;1797104;79;20995;-88
2021/07/16 00:34:02;;;;;;;3.85;2.80;;;;;;;19.37;100.00;100446.45;1748517;80;21058;-84
2021/07/16 00:36:28;;;;;;;4.12;2.25;;;;;;;19.39;100.00;100445.55;1756725;81;21059;-87
2021/07/16 00:38:54;;;;;;;3.47;1.85;;;;;;;19.43;100.00;100447.86;1756767;81;21028;-83
2021/07/16 00:41:21;;;;;;;3.17;2.12;;;;;;;19.46;100.00;100440.24;1756706;81;21118;-83
2021/07/16 00:43:49;;;;;;;3.77;2.15;;;;;;;19.58;100.00;100443.66;1757097;81;21020;-83
2021/07/16 00:46:16;;;;;;;2.85;2.22;;;;;;;19.58;100.00;100443.66;1756764;81;20860;-84
2021/07/16 00:48:42;;;;;;;3.42;2.47;;;;;;;19.62;100.00;100449.56;1756677;81;21064;-87
2021/07/16 00:51:09;;;;;;;3.27;1.57;;;;;;;19.64;100.00;100440.34;1756611;81;21027;-87
2021/07/16 00:53:35;;;;;;;3.08;2.27;;;;;;;19.67;100.00;100439.68;1756643;81;21628;-83
2021/07/16 00:56:01;;;;;;;2.52;2.02;;;;;;;19.67;100.00;100441.61;1729293;81;21039;-83
2021/07/16 00:58:28;;;;;;;2.77;2.02;;;;;;;19.65;100.00;100439.17;1756434;81;20980;-83
2021/07/16 01:00:55;;;;;;;2.15;1.95;;;;;;;19.60;100.00;100442.16;1727582;81;21035;-83
2021/07/16 01:03:21;;;;;;;3.25;1.95;;;;;;;19.56;100.00;100444.01;1756564;81;21094;-85
2021/07/16 01:05:48;;;;;;;3.45;2.27;;;;;;;19.52;100.00;100448.02;1729422;81;21942;-86
2021/07/16 01:08:15;;;;;;;3.98;2.55;;;;;;;19.47;100.00;100439.92;1756591;81;21079;-83
2021/07/16 01:10:43;;;;;;;1.90;1.72;;;;;;;19.45;100.00;100444.18;1756563;81;21011;-87
2021/07/16 01:13:13;;;;;;;3.00;1.95;;;;;;;19.34;100.00;100442.41;1728868;81;21348;-87
2021/07/16 01:15:38;;;;;;;4.22;2.58;;;;;;;19.34;100.00;100442.41;1757111;81;21016;-84
2021/07/16 01:18:05;;;;;;;5.50;2.37;;;;;;;19.30;100.00;100440.87;1727668;81;21580;-85
2021/07/16 01:20:32;;;;;;;4.30;2.58;;;;;;;19.30;100.00;100442.25;1756521;81;21032;-84
2021/07/16 01:23:00;;;;;;;3.67;2.33;;;;;;;19.29;100.00;100435.11;1756546;81;21028;-86
2021/07/16 01:25:30;;;;;;;2.50;2.30;;;;;;;19.27;100.00;100441.55;1757143;81;21051;-83
2021/07/16 01:28:01;;;;;;;2.85;2.25;;;;;;;19.26;100.00;100440.49;1755996;81;21043;-86
2021/07/16 01:30:31;;;;;;;3.02;1.87;;;;;;;19.22;100.00;100432.06;1728883;81;21063;-83
2021/07/16 01:33:00;;;;;;;3.20;2.27;;;;;;;19.20;100.00;100435.74;1756702;81;21015;-83
2021/07/16 01:35:27;;;;;;;4.95;2.22;;;;;;;19.16;100.00;100425.09;1757486;81;21147;-83
2021/07/16 01:37:53;;;;;;;1.85;1.67;;;;;;;19.13;100.00;100423.00;1756713;81;21027;-87
2021/07/16 01:40:22;;;;;;;4.10;2.50;;;;;;;19.11;100.00;100428.90;1756692;81;20971;-83
2021/07/16 01:42:51;;;;;;;2.62;2.20;;;;;;;19.09;100.00;100426.23;1756928;81;21031;-87
2021/07/16 01:45:20;;;;;;;3.50;2.30;;;;;;;19.06;100.00;100419.38;1757134;81;21331;-83
2021/07/16 01:47:51;;;;;;;2.02;1.92;;;;;;;19.04;100.00;100408.41;1757460;81;21019;-87
2021/07/16 01:50:18;;;;;;;4.62;2.42;;;;;;;19.00;100.00;100413.02;1753606;81;21028;-87
2021/07/16 01:52:45;;;;;;;3.85;2.77;;;;;;;18.97;100.00;100409.55;1756712;81;20988;-83
2021/07/16 01:55:14;;;;;;;3.75;2.45;;;;;;;18.94;100.00;100397.19;1756577;81;21066;-87
2021/07/16 01:57:40;;;;;;;6.50;2.15;;;;;;;18.95;100.00;100395.22;1757215;81;21430;-88
2021/07/16 02:00:10;;;;;;;3.47;1.92;;;;;;;19.04;100.00;100392.63;1756599;81;20960;-87
2021/07/16 02:02:52;;;;;;;4.97;2.00;;;;;;;19.24;100.00;100398.50;1757170;80;21115;-87
2021/07/16 02:05:21;;;;;;;3.60;1.98;;;;;;;19.43;100.00;100393.83;1756419;81;21355;-83
2021/07/16 02:07:50;;;;;;;2.80;1.80;;;;;;;19.59;100.00;100396.20;1757340;81;21007;-84
2021/07/16 02:10:22;;;;;;;5.03;2.22;;;;;;;19.82;98.17;100404.15;1756693;81;21032;-87
2021/07/16 02:12:50;;;;;;;3.77;2.05;;;;;;;19.82;98.17;100404.15;1756558;81;20925;-83
2021/07/16 02:15:21;;;;;;;2.12;1.55;;;;;;;19.91;97.30;100402.10;1756583;81;21031;-83
2021/07/16 02:17:47;;;;;;;2.20;1.77;;;;;;;19.95;96.28;100396.91;1757438;81;21459;-83
2021/07/16 02:20:35;;;;;;;3.40;2.12;;;;;;;19.99;95.70;100402.57;1756889;81;21026;-84
2021/07/16 02:23:07;;;;;;;7.28;1.70;;;;;;;19.99;95.17;100399.80;1743693;81;21032;-83
2021/07/16 02:25:33;;;;;;;3.08;2.15;;;;;;;19.99;95.17;100399.80;1756680;80;21027;-83
2021/07/16 02:28:05;;;;;;;3.40;2.30;;;;;;;19.95;95.32;100396.08;1757500;81;21028;-87
2021/07/16 02:30:31;;;;;;;4.23;2.20;;;;;;;19.88;95.61;100396.67;1756836;81;21074;-87
2021/07/16 02:32:59;;;;;;;4.75;2.47;;;;;;;19.84;96.11;100402.66;1756569;81;21067;-87
2021/07/16 02:35:26;;;;;;;5.78;1.77;;;;;;;19.79;96.54;100402.87;1746710;81;21022;-83
2021/07/16 02:37:52;;;;;;;3.67;2.12;;;;;;;19.75;97.15;100391.64;1738811;82;21030;-83
2021/07/16 02:40:20;;;;;;;2.83;1.95;;;;;;;19.71;97.82;100396.27;1739530;82;21625;-83
2021/07/16 02:42:46;;;;;;;2.87;1.90;;;;;;;19.66;98.54;100395.66;1738755;82;21017;-83
2021/07/16 02:45:18;;;;;;;2.65;2.02;;;;;;;19.61;99.17;100398.06;1775874;79;21017;-86
2021/07/16 02:47:44;;;;;;;2.95;1.82;;;;;;;19.58;99.34;100400.11;1751945;79;21567;-87
2021/07/16 02:50:16;;;;;;;2.65;1.80;;;;;;;19.56;99.74;100405.21;1751998;81;21165;-86
2021/07/16 02:52:43;;;;;;;2.77;2.33;;;;;;;19.55;100.00;100400.80;1724208;81;21377;-83
2021/07/16 02:55:10;;;;;;;4.30;2.22;;;;;;;19.63;100.00;100404.63;1724412;83;21009;-83
2021/07/16 02:57:37;;;;;;;3.27;2.12;;;;;;;19.63;100.00;100404.63;1724247;83;21136;-83
2021/07/16 03:00:08;;;;;;;3.77;1.80;;;;;;;19.78;100.00;100407.36;1724206;83;21052;-83
2021/07/16 03:02:40;;;;;;;3.77;2.35;;;;;;;19.78;100.00;100407.36;1724268;83;21024;-87
2021/07/16 03:05:10;;;;;;;3.87;2.00;;;;;;;19.85;100.00;100404.27;1724877;83;21517;-83
2021/07/16 03:07:37;;;;;;;2.70;1.80;;;;;;;19.96;100.00;100398.52;1723705;83;21105;-83
2021/07/16 03:10:18;;;;;;;3.27;2.50;;;;;;;20.05;99.77;100405.34;1724470;83;21036;-87
2021/07/16 03:12:46;;;;;;;;;;;;;;;20.14;99.47;100395.54;1726808;83;20981;-84
2021/07/16 03:15:16;;;;;;;3.90;2.40;;;;;;;20.31;99.90;100401.45;1740171;82;20151;-84
2021/07/16 03:17:44;;;;;;;4.08;2.22;;;;;;;20.31;99.90;100401.45;1725081;82;20990;-83
2021/07/16 03:20:16;;;;;;;6.47;2.40;;;;;;;20.38;100.00;100400.30;1724824;83;21052;-87
2021/07/16 03:22:44;;;;;;;3.25;2.22;;;;;;;20.44;100.00;100411.38;1724228;83;21502;-83
2021/07/16 03:25:15;;;;;;;3.22;2.12;;;;;;;20.50;100.00;100403.63;1724308;83;21060;-87
2021/07/16 03:27:42;;;;;;;2.97;1.93;;;;;;;20.58;100.00;100409.11;1724883;83;20977;-84
2021/07/16 03:30:17;;;;;;;2.17;1.90;;;;;;;20.67;100.00;100406.19;1724943;83;21036;-87
2021/07/16 03:32:43;;;;;;;3.85;2.65;;;;;;;20.79;100.00;100406.76;1724432;83;20881;-87
2021/07/16 03:35:11;;;;;;;2.00;1.80;;;;;;;20.92;100.00;100398.66;1724277;83;20969;-87
2021/07/16 03:37:39;;;;;;;3.47;2.40;;;;;;;21.06;100.00;100402.42;1724149;83;21099;-87
2021/07/16 03:40:08;;;;;;;3.42;2.33;;;;;;;21.19;100.00;100404.58;1725085;83;20974;-87
2021/07/16 03:42:34;;;;;;;2.72;1.92;;;;;;;21.34;100.00;100401.08;1695740;83;21005;-88
2021/07/16 03:45:04;;;;;;;2.80;2.25;;;;;;;21.46;100.00;100403.83;1725895;81;21072;-89
2021/07/16 03:47:30;;;;;;;5.47;2.58;;;;;;;21.60;99.70;100407.58;1749190;81;21025;-84
2021/07/16 03:49:57;;;;;;;3.83;2.30;;;;;;;21.72;99.19;100408.10;1752586;81;21092;-88
2021/07/16 03:52:25;;;;;;;5.20;2.60;;;;;;;21.87;97.35;100410.09;1758539;81;21092;-83
2021/07/16 03:54:51;;;;;;;3.47;1.95;;;;;;;22.01;95.98;100413.84;1758697;81;21067;-88
2021/07/16 03:57:18;;;;;;;4.62;2.37;;;;;;;22.19;95.21;100412.10;1729525;82;20987;-89
2021/07/16 03:59:44;;;;;;;2.62;2.20;;;;;;;22.36;95.47;100399.83;1729669;82;21059;-84
2021/07/16 04:02:11;;;;;;;3.10;2.27;;;;;;;22.50;95.51;100396.80;1717493;83;21058;-89
2021/07/16 04:04:37;;;;;;;6.12;2.40;;;;;;;22.65;94.72;100395.72;1708356;82;21436;-89
2021/07/16 04:07:07;;;;;;;2.95;2.33;;;;;;;22.80;93.48;100403.82;1738293;82;21115;-84
2021/07/16 04:09:34;;;;;;;2.17;1.70;;;;;;;22.93;92.48;100401.15;1738382;82;21536;-88
2021/07/16 04:12:12;;;;;;;3.77;2.33;;;;;;;23.07;91.65;100409.86;1738484;82;21051;-89
2021/07/16 04:14:43;;;;;;;2.67;1.98;;;;;;;23.24;90.72;100406.40;1738346;82;21098;-84
2021/07/16 04:17:14;;;;;;;3.02;2.17;;;;;;;23.40;89.35;100402.96;1739427;82;21082;-89
2021/07/16 04:19:41;;;;;;;2.55;1.82;;;;;;;23.56;87.66;100405.06;1744179;81;21057;-85
2021/07/16 04:22:08;;;;;;;2.87;2.08;;;;;;;23.74;85.73;100406.05;1739630;81;21006;-84
2021/07/16 04:24:35;;;;;;;3.87;2.10;;;;;;;23.89;85.08;100407.92;1738610;82;21015;-84
2021/07/16 04:27:04;;;;;;;2.37;2.08;;;;;;;24.06;84.73;100406.63;1749882;81;21634;-86
2021/07/16 04:29:30;;;;;;;3.35;2.42;;;;;;;24.22;83.17;100409.28;1758219;81;21380;-90
2021/07/16 04:32:00;;;;;;;2.37;2.10;;;;;;;24.36;81.56;100410.92;1771411;80;21381;-91
2021/07/16 04:34:31;;;;;;;3.12;2.27;;;;;;;24.52;80.43;100414.17;1771366;80;20975;-84
2021/07/16 04:36:59;;;;;;;6.78;1.70;;;;;;;24.63;78.80;100410.37;1757643;81;21009;-90
2021/07/16 04:39:25;;;;;;;2.55;1.90;;;;;;;24.78;77.49;100412.79;1729977;81;21021;-91
2021/07/16 04:41:51;;;;;;;4.40;2.37;;;;;;;24.91;76.56;100413.96;1749855;81;21084;-84
2021/07/16 04:44:18;;;;;;;4.33;2.62;;;;;;;25.03;75.88;100420.72;1758203;81;21500;-84
2021/07/16 04:46:47;;;;;;;2.58;2.25;;;;;;;25.16;75.27;100422.09;1756831;80;20954;-84
2021/07/16 04:49:13;;;;;;;2.15;1.92;;;;;;;25.31;74.81;100428.09;1783677;79;21042;-91
2021/07/16 04:51:40;;;;;;;3.45;2.35;;;;;;;25.45;73.95;100426.69;1751536;81;21022;-84
2021/07/16 04:54:06;;;;;;;5.42;2.70;;;;;;;25.58;72.90;100423.83;1749761;81;20988;-89
2021/07/16 04:56:33;;;;;;;4.28;2.42;;;;;;;25.69;72.27;100428.13;1740034;80;21022;-84
2021/07/16 04:58:59;;;;;;;2.47;1.80;;;;;;;25.78;71.24;100420.25;1776277;79;20974;-90
2021/07/16 05:01:27;;;;;;;2.42;1.85;;;;;;;25.87;70.17;100425.58;1752376;81;21011;-91
2021/07/16 05:03:54;;;;;;;3.47;2.27;;;;;;;25.94;69.66;100423.66;1749251;81;21047;-89
2021/07/16 05:06:22;;;;;;;2.33;2.10;;;;;;;26.04;69.74;100422.16;1749890;81;21057;-89
2021/07/16 05:08:48;;;;;;;2.87;1.95;;;;;;;26.10;68.56;100423.39;1744265;81;20968;-90
2021/07/16 05:11:15;;;;;;;5.22;2.58;;;;;;;26.17;68.19;100425.47;1749933;81;21101;-90
2021/07/16 05:13:43;;;;;;;5.15;2.08;;;;;;;26.26;67.96;100420.92;1736506;80;21071;-88
2021/07/16 05:16:11;;;;;;;3.77;2.40;;;;;;;26.33;67.32;100418.98;1753259;79;21419;-89
2021/07/16 05:18:37;;;;;;;4.45;2.25;;;;;;;26.41;66.60;100418.47;1750443;80;21063;-89
2021/07/16 05:21:04;;;;;;;4.47;2.90;;;;;;;26.48;66.54;100411.50;1737496;81;20983;-90
2021/07/16 05:23:31;;;;;;;3.45;2.40;;;;;;;26.56;66.01;100420.21;1748030;80;21066;-84
2021/07/16 05:25:57;;;;;;;3.52;2.42;;;;;;;26.64;65.26;100418.27;1761541;81;20980;-84
2021/07/16 05:28:24;;;;;;;2.75;2.02;;;;;;;26.72;65.36;100421.91;1761613;80;21012;-84
2021/07/16 05:30:50;;;;;;;4.40;2.72;;;;;;;26.78;64.88;100425.95;1762654;81;21047;-84
2021/07/16 05:33:17;;;;;;;4.00;2.65;;;;;;;26.89;65.24;100421.22;1762314;80;21035;-84
2021/07/16 05:35:44;;;;;;;4.37;2.85;;;;;;;26.99;65.27;100428.88;1763184;81;20919;-84
2021/07/16 05:38:10;;;;;;;8.63;2.85;;;;;;;27.13;64.27;100423.96;1762161;81;21478;-88
2021/07/16 05:40:38;;;;;;;4.80;3.10;;;;;;;27.26;64.48;100435.67;1745885;82;21369;-89
2021/07/16 05:43:06;;;;;;;4.28;3.20;;;;;;;27.35;63.58;100431.91;1739749;81;21048;-84
2021/07/16 05:45:33;;;;;;;4.55;2.72;;;;;;;27.39;63.31;100431.91;1728040;83;21044;-84
2021/07/16 05:48:01;;;;;;;4.75;2.72;;;;;;;27.40;63.79;100431.53;1737270;80;21008;-84
2021/07/16 05:50:28;;;;;;;3.77;2.40;;;;;;;27.43;64.62;100430.73;1748463;82;21053;-84
2021/07/16 05:52:55;;;;;;;3.15;2.85;;;;;;;27.48;64.62;100434.36;1753748;81;21074;-84
2021/07/16 05:55:22;;;;;;;4.47;3.17;;;;;;;27.57;64.07;100421.57;1715798;82;21081;-84
2021/07/16 05:57:48;;;;;;;5.20;3.20;;;;;;;27.71;63.37;100426.41;1746986;80;20984;-84
2021/07/16 06:00:16;;;;;;;4.25;2.72;;;;;;;27.83;63.54;100419.05;1758602;81;21191;-84
2021/07/16 06:02:42;;;;;;;4.42;3.30;;;;;;;27.96;63.73;100424.28;1758067;80;21409;-84
2021/07/16 06:05:09;;;;;;;4.60;2.85;;;;;;;28.08;64.20;100415.47;1758072;81;20999;-84
2021/07/16 06:07:36;;;;;;;4.50;3.02;;;;;;;28.17;64.06;100421.50;1758304;81;21204;-84
2021/07/16 06:10:03;;;;;;;4.42;2.87;;;;;;;28.27;62.87;100419.30;1758965;81;21020;-84
2021/07/16 06:12:31;;;;;;;4.75;2.87;;;;;;;28.36;62.36;100415.27;1754248;81;21027;-85
2021/07/16 06:14:57;;;;;;;3.27;2.62;;;;;;;28.46;62.45;100425.73;1728114;82;21045;-85
2021/07/16 06:17:26;;;;;;;2.90;2.50;;;;;;;28.55;61.55;100422.52;1729643;80;21013;-85
2021/07/16 06:19:52;;;;;;;4.90;3.02;;;;;;;28.62;60.66;100413.48;1748425;82;21461;-83
2021/07/16 06:22:19;;;;;;;3.05;2.37;;;;;;;28.74;60.58;100415.07;1749411;80;20981;-84
2021/07/16 06:24:46;;;;;;;5.40;3.08;;;;;;;28.86;60.70;100416.66;1758099;81;21663;-84
2021/07/16 06:27:12;;;;;;;5.28;2.85;;;;;;;29.03;59.35;100416.39;1758147;81;21035;-85
2021/07/16 06:29:41;;;;;;;3.15;2.65;;;;;;;29.23;58.64;100412.53;1749049;80;21487;-91
2021/07/16 06:32:08;;;;;;;2.72;2.33;;;;;;;29.39;57.51;100410.67;1749113;81;20976;-85
2021/07/16 06:34:36;;;;;;;3.95;2.77;;;;;;;29.54;57.21;100404.55;1764315;81;21539;-90
2021/07/16 06:37:05;;;;;;;2.37;2.02;;;;;;;29.74;56.96;100407.67;1761095;81;21093;-85
2021/07/16 06:39:31;;;;;;;3.40;2.80;;;;;;;29.91;55.54;100400.33;1731215;81;21058;-85
2021/07/16 06:41:58;;;;;;;3.60;2.62;;;;;;;30.08;55.78;100400.63;1731534;81;20980;-86
2021/07/16 06:44:24;;;;;;;3.77;2.70;;;;;;;30.20;55.32;100406.55;1761883;81;21019;-91
2021/07/16 06:46:50;;;;;;;4.67;2.95;;;;;;;30.33;55.30;100406.87;1761747;81;21027;-85
2021/07/16 06:49:20;;;;;;;4.55;3.00;;;;;;;30.52;54.67;100401.89;1761383;81;20928;-85
2021/07/16 06:51:46;;;;;;;3.85;3.20;;;;;;;30.74;53.96;100396.22;1759197;81;21477;-90
2021/07/16 06:54:13;;;;;;;2.92;2.42;;;;;;;30.91;53.54;100399.28;1754079;81;21038;-87
2021/07/16 06:56:39;;;;;;;5.97;3.10;;;;;;;31.05;53.97;100399.12;1753536;81;21007;-91
2021/07/16 06:59:08;;;;;;;3.40;2.62;;;;;;;31.19;52.44;100391.89;1764530;80;21006;-85
2021/07/16 07:01:34;;;;;;;3.58;2.55;;;;;;;31.25;52.46;100397.24;1794681;80;20948;-86
2021/07/16 07:04:00;;;;;;;4.03;2.67;;;;;;;31.35;51.77;100390.48;1794862;79;21519;-86
2021/07/16 07:06:27;;;;;;;4.37;2.95;;;;;;;31.48;51.32;100397.20;1737904;82;21116;-85
2021/07/16 07:08:54;;;;;;;6.05;3.08;;;;;;;31.60;51.28;100393.81;1702885;82;21471;-85
2021/07/16 07:11:20;;;;;;;5.37;2.98;;;;;;;31.69;50.34;100394.67;1762257;80;20995;-90
2021/07/16 07:15:40;;;;;;;4.08;3.00;;;;;;;31.97;51.25;100391.26;1831428;77;22691;-85
2021/07/16 07:18:06;;;;;;;5.80;3.20;;;;;;;32.04;51.46;100389.11;1787419;79;20986;-90
2021/07/16 07:20:33;;;;;;;4.62;3.33;;;;;;;32.16;50.74;100384.09;1781006;80;21107;-85
2021/07/16 07:23:01;;;;;;;4.10;2.85;;;;;;;32.28;49.60;100382.07;1750611;80;21050;-85
2021/07/16 07:25:27;;;;;;;3.00;2.75;;;;;;;32.34;49.20;100380.33;1780297;80;21348;-85
2021/07/16 07:27:53;;;;;;;6.12;2.45;;;;;;;32.42;49.21;100384.66;1750432;80;21013;-85
2021/07/16 07:30:20;;;;;;;4.25;2.85;;;;;;;32.54;49.04;100384.65;1752101;80;20989;-84
2021/07/16 07:32:47;;;;;;;3.20;2.87;;;;;;;32.65;47.69;100390.13;1763938;80;20972;-90
2021/07/16 07:35:13;;;;;;;3.10;2.37;;;;;;;32.67;47.98;100390.50;1755010;80;21063;-85
2021/07/16 07:37:40;;;;;;;5.90;2.95;;;;;;;32.67;47.52;100391.91;1735031;82;21630;-85
2021/07/16 07:40:10;;;;;;;3.80;2.77;;;;;;;32.65;47.54;100392.95;1734235;82;21012;-90
2021/07/16 07:42:38;;;;;;;4.03;2.90;;;;;;;32.71;47.00;100396.86;1734550;82;21135;-90
2021/07/16 07:45:07;;;;;;;4.35;2.80;;;;;;;32.77;47.51;100397.98;1734416;81;21424;-84
2021/07/16 07:47:35;;;;;;;3.08;2.77;;;;;;;32.81;47.32;100398.69;1769948;80;21021;-84
2021/07/16 07:50:12;;;;;;;3.52;2.52;;;;;;;32.91;47.78;100401.95;1781077;80;20958;-89
2021/07/16 07:52:39;;;;;;;3.40;2.87;;;;;;;33.01;46.83;100403.56;1776513;80;21069;-89
2021/07/16 07:55:07;;;;;;;3.62;2.80;;;;;;;33.05;46.81;100404.33;1759665;80;21501;-91
2021/07/16 07:57:33;;;;;;;4.05;3.20;;;;;;;33.10;46.71;100399.58;1750795;80;21076;-85
2021/07/16 07:59:59;;;;;;;3.37;2.62;;;;;;;33.16;46.93;100414.80;1751610;80;21425;-91
2021/07/16 08:02:26;;;;;;;3.00;2.67;;;;;;;33.21;46.16;100401.58;1764241;80;21016;-86
2021/07/16 08:04:53;;;;;;;3.95;2.83;;;;;;;33.26;47.20;100403.89;1765741;80;21434;-90
2021/07/16 08:07:19;;;;;;;2.67;2.37;;;;;;;33.27;47.34;100396.20;1765582;81;20968;-85
2021/07/16 08:09:46;;;;;;;3.47;2.52;;;;;;;33.28;46.99;100404.23;1766615;81;21015;-91
2021/07/16 08:12:12;;;;;;;2.70;2.05;;;;;;;33.26;46.99;100409.56;1754652;81;21088;-91
2021/07/16 08:14:41;;;;;;;3.20;2.40;;;;;;;33.33;47.30;100401.51;1755260;80;21005;-90
2021/07/16 08:17:09;;;;;;;3.90;2.60;;;;;;;33.48;46.89;100402.00;1761439;81;21017;-86
2021/07/16 08:19:36;;;;;;;4.10;2.60;;;;;;;33.48;46.38;100406.25;1761786;81;21073;-91
2021/07/16 08:22:04;;;;;;;3.70;3.08;;;;;;;33.50;46.76;100403.78;1761722;81;21035;-90
2021/07/16 08:24:30;;;;;;;4.40;2.70;;;;;;;33.61;46.44;100400.92;1761498;81;21385;-91
2021/07/16 08:26:57;;;;;;;3.25;2.45;;;;;;;33.77;46.29;100405.80;1763067;80;20990;-90
2021/07/16 08:29:23;;;;;;;3.90;2.60;;;;;;;33.91;45.27;100402.48;1725338;83;21026;-86
2021/07/16 08:31:49;;;;;;;3.77;2.90;;;;;;;33.89;44.36;100406.37;1725778;81;21024;-90
2021/07/16 08:34:17;;;;;;;3.67;2.77;;;;;;;33.96;44.71;100399.11;1733298;81;21006;-85
2021/07/16 08:36:44;;;;;;;3.30;2.55;;;;;;;33.92;43.55;100395.55;1725506;82;21041;-90
2021/07/16 08:39:11;;;;;;;3.50;2.40;;;;;;;33.83;44.28;100399.02;1709483;83;21435;-85
2021/07/16 08:41:37;;;;;;;3.52;2.90;;;;;;;33.88;44.47;100403.34;1720083;82;21013;-85
2021/07/16 08:44:04;;;;;;;3.10;2.50;;;;;;;33.91;43.80;100396.19;1705571;82;21033;-90
2021/07/16 08:46:32;;;;;;;3.67;2.52;;;;;;;33.96;42.72;100401.95;1723012;82;21013;-85
2021/07/16 08:48:58;;;;;;;3.67;2.75;;;;;;;33.98;43.25;100395.22;1694469;84;20995;-90
2021/07/16 08:51:25;;;;;;;3.92;2.67;;;;;;;34.09;44.28;100399.23;1725662;83;20958;-85
2021/07/16 08:53:54;;;;;;;2.83;2.55;;;;;;;34.22;44.25;100396.67;1695905;84;21011;-85
2021/07/16 08:56:22;;;;;;;2.95;2.70;;;;;;;34.39;44.00;100405.14;1710641;83;21005;-86
2021/07/16 08:58:50;;;;;;;2.83;2.58;;;;;;;34.48;44.59;100395.39;1724989;82;21032;-86
2021/07/16 09:01:17;;;;;;;4.72;2.70;;;;;;;34.57;43.67;100389.89;1733063;81;21057;-86
2021/07/16 09:04:05;;;;;;;3.37;2.85;;;;;;;34.59;43.51;100381.73;1696835;82;21553;-86
2021/07/16 09:06:52;;;;;;;4.25;3.45;;;;;;;34.56;44.39;100383.23;1703554;84;21049;-85
2021/07/16 09:09:20;;;;;;;3.35;2.60;;;;;;;34.60;43.72;100386.80;1711891;83;20998;-90
2021/07/16 09:11:54;;;;;;;5.62;3.08;;;;;;;34.71;44.09;100383.66;1725002;83;21028;-85
2021/07/16 09:14:30;;;;;;;3.55;2.87;;;;;;;34.78;42.80;100382.05;1724779;83;21433;-89
2021/07/16 09:17:07;;;;;;;3.55;2.85;;;;;;;34.88;43.57;100383.78;1726957;81;20978;-85
2021/07/16 09:19:48;;;;;;;4.10;2.95;;;;;;;34.85;43.01;100382.64;1742475;81;21056;-89
2021/07/16 09:22:23;;;;;;;5.00;3.35;;;;;;;34.88;43.18;100378.90;1688988;83;21016;-86
2021/07/16 09:24:53;;;;;;;3.72;2.55;;;;;;;34.79;43.21;100380.80;1724427;83;20973;-86
2021/07/16 09:27:41;;;;;;;3.52;2.58;;;;;;;34.77;43.37;100377.60;1725175;83;21012;-90
2021/07/16 09:30:24;;;;;;;3.72;2.75;;;;;;;34.88;43.63;100376.69;1714492;83;20996;-86
2021/07/16 09:32:57;;;;;;;4.70;3.00;;;;;;;35.05;42.23;100385.31;1725310;82;20981;-86
2021/07/16 09:35:32;;;;;;;4.58;2.65;;;;;;;35.15;41.03;100385.49;1725012;82;21024;-86
2021/07/16 09:38:05;;;;;;;3.40;2.90;;;;;;;35.17;42.68;100380.95;1721232;83;21394;-86
2021/07/16 09:40:39;;;;;;;5.20;2.87;;;;;;;35.18;41.14;100384.58;1703745;83;20961;-91
2021/07/16 09:43:15;;;;;;;2.60;1.95;;;;;;;35.20;41.21;100377.83;1725914;82;21017;-90
2021/07/16 09:46:04;;;;;;;3.65;2.70;;;;;;;35.24;39.29;100380.74;1714983;83;21013;-86
2021/07/16 09:48:37;;;;;;;2.72;2.17;;;;;;;35.25;38.18;100383.74;1724348;82;20963;-85
2021/07/16 09:51:27;;;;;;;4.35;2.77;;;;;;;35.23;39.56;100384.81;1725193;83;21359;-85
2021/07/16 09:54:05;;;;;;;3.35;2.75;;;;;;;35.26;40.24;100384.53;1754804;81;21562;-94
2021/07/16 09:56:35;;;;;;;2.75;2.33;;;;;;;35.32;38.60;100379.90;1723192;82;21510;-86
2021/07/16 09:59:17;;;;;;;3.25;2.62;;;;;;;35.38;37.76;100383.76;1722980;83;21127;-86
2021/07/16 10:01:45;;;;;;;2.47;2.15;;;;;;;35.36;38.01;100376.31;1723588;82;21121;-86
2021/07/16 10:04:23;;;;;;;3.98;2.87;;;;;;;35.32;38.06;100373.59;1722705;83;20976;-86
2021/07/16 10:06:51;;;;;;;3.33;2.67;;;;;;;35.30;38.23;100376.71;1724580;83;21073;-90
2021/07/16 10:09:18;;;;;;;4.72;2.40;;;;;;;35.10;40.16;100375.48;1724986;83;21446;-91
2021/07/16 10:11:48;;;;;;;2.90;2.37;;;;;;;34.95;39.97;100379.33;1725621;83;21632;-91
2021/07/16 10:14:14;;;;;;;3.12;2.62;;;;;;;34.94;39.55;100372.67;1707335;83;21459;-86
2021/07/16 10:16:45;;;;;;;4.70;3.00;;;;;;;35.05;38.97;100370.33;1705331;82;21528;-90
2021/07/16 10:19:12;;;;;;;4.75;2.80;;;;;;;35.05;39.99;100372.54;1732352;81;20977;-91
2021/07/16 10:21:40;;;;;;;4.60;3.20;;;;;;;34.88;40.85;100369.59;1754620;81;20977;-86
2021/07/16 10:24:07;;;;;;;3.45;2.92;;;;;;;34.69;41.12;100364.23;1732415;82;21025;-90
2021/07/16 10:26:34;;;;;;;3.75;2.70;;;;;;;34.62;42.09;100367.27;1732522;82;21005;-90
2021/07/16 10:56:48;;;;;;;3.55;2.80;;;;;;;35.74;38.92;100332.95;1850876;76;22567;-89
2021/07/16 10:59:46;;;;;;;4.10;2.42;;;;;;;35.85;38.44;100330.53;1818406;78;21013;-93
2021/07/16 11:02:44;;;;;;;3.10;2.80;;;;;;;35.97;38.86;100327.51;1815030;78;21044;-89
2021/07/16 11:05:38;;;;;;;4.00;2.45;;;;;;;36.13;38.44;100331.66;1786032;78;21017;-90
2021/07/16 11:08:28;;;;;;;5.35;3.20;;;;;;;36.27;38.03;100337.46;1788606;78;21396;-91
2021/07/16 11:11:22;;;;;;;3.35;2.80;;;;;;;36.28;36.69;100330.53;1764235;81;21055;-90
2021/07/16 11:14:20;;;;;;;3.35;2.80;;;;;;;36.15;37.70;100326.31;1787443;78;20973;-90
2021/07/16 11:17:05;;;;;;;4.35;3.08;;;;;;;36.03;37.61;100327.71;1751655;81;21013;-91
2021/07/16 11:20:19;;;;;;;4.28;2.90;;;;;;;36.08;37.73;100333.67;1783528;80;21563;-95
2021/07/16 11:23:05;;;;;;;5.22;3.15;;;;;;;36.13;37.47;100325.19;1762199;80;21516;-94
2021/07/16 11:25:52;;;;;;;4.10;3.12;;;;;;;36.08;37.60;100320.88;1767284;80;21499;-90
2021/07/16 11:28:37;;;;;;;4.37;2.98;;;;;;;36.13;37.85;100326.61;1800070;78;20948;-90
2021/07/16 11:31:22;;;;;;;3.65;3.00;;;;;;;36.31;38.83;100321.70;1816264;78;21005;-92
2021/07/16 11:34:15;;;;;;;4.22;3.35;;;;;;;36.54;38.78;100326.95;1787537;80;20998;-92
2021/07/16 11:36:58;;;;;;;3.65;3.25;;;;;;;36.76;37.85;100317.02;1787124;80;21543;-95
2021/07/16 11:39:43;;;;;;;4.15;3.22;;;;;;;36.88;36.23;100320.27;1787200;80;21384;-90
2021/07/16 11:42:28;;;;;;;4.08;3.33;;;;;;;36.98;37.83;100321.28;1779657;80;21476;-95
2021/07/16 11:45:32;;;;;;;6.35;3.37;;;;;;;37.12;37.48;100320.58;1782420;80;21303;-90
2021/07/16 11:48:21;;;;;;;4.80;3.37;;;;;;;37.24;37.21;100312.58;1791650;79;21542;-95
2021/07/16 11:51:07;;;;;;;4.90;3.27;;;;;;;37.26;38.15;100315.75;1777560;79;20981;-95
2021/07/16 11:53:51;;;;;;;6.50;3.72;;;;;;;37.24;37.32;100316.84;1780672;79;21048;-94
2021/07/16 11:56:36;;;;;;;3.58;3.20;;;;;;;37.21;37.37;100308.61;1744589;79;21069;-93
2021/07/16 11:59:23;;;;;;;4.37;3.60;;;;;;;37.30;37.67;100305.02;1739873;81;21957;-95
2021/07/16 12:02:12;;;;;;;3.67;3.17;;;;;;;37.54;36.74;100304.49;1770028;81;20957;-89
2021/07/16 12:04:58;;;;;;;3.95;3.17;;;;;;;37.65;36.09;100306.28;1793862;79;21016;-90
2021/07/16 12:07:46;;;;;;;5.08;3.37;;;;;;;37.73;36.22;100308.20;1801493;79;21013;-95
2021/07/16 12:10:33;;;;;;;5.47;3.75;;;;;;;37.75;36.25;100314.23;1800808;79;21037;-89